createdAt,value
2024-02-11T00:00:09.183Z,94821.78
2024-02-11T00:02:38.649Z,94826.03
2024-02-11T00:05:09.359Z,94827.97
2024-02-11T00:07:44.016Z,94821.78
2024-02-11T00:10:11.738Z,94825.63
2024-02-11T00:12:40.028Z,94824.84
2024-02-11T00:15:10.264Z,94832.59
2024-02-11T00:17:38.450Z,94838.00
2024-02-11T00:20:17.366Z,94841.84
2024-02-11T00:22:50.112Z,94848.03
2024-02-11T00:25:18.420Z,94845.69
2024-02-11T00:27:51.205Z,94856.50
2024-02-11T00:30:23.398Z,94857.66
2024-02-11T00:32:51.243Z,94850.31
2024-02-11T00:35:19.395Z,94860.34
2024-02-11T00:37:47.477Z,94854.94
2024-02-11T00:40:15.739Z,94861.13
2024-02-11T00:42:43.547Z,94863.84
2024-02-11T00:45:13.647Z,94876.56
2024-02-11T00:47:42.800Z,94868.81
2024-02-11T00:50:15.342Z,94872.31
2024-02-11T00:52:43.175Z,94869.59
2024-02-11T00:55:11.593Z,94875.00
2024-02-11T00:57:39.779Z,94878.84
2024-02-11T01:00:12.087Z,94878.84
2024-02-11T01:02:39.960Z,94874.56
2024-02-11T01:05:09.828Z,94885.03
2024-02-11T01:07:42.350Z,94884.25
2024-02-11T01:10:11.466Z,94895.06
2024-02-11T01:12:40.510Z,94897.75
2024-02-11T01:15:08.856Z,94901.59
2024-02-11T01:17:36.508Z,94904.31
2024-02-11T01:20:04.941Z,94898.91
2024-02-11T01:22:34.719Z,94908.16
2024-02-11T01:25:02.293Z,94902.75
2024-02-11T01:27:29.686Z,94908.16
2024-02-11T01:29:58.133Z,94910.06
2024-02-11T01:32:25.825Z,94910.06
2024-02-11T01:34:53.923Z,94903.91
2024-02-11T01:37:22.006Z,94898.06
2024-02-11T01:39:51.010Z,94906.94
2024-02-11T01:42:18.660Z,94907.72
2024-02-11T01:44:46.088Z,94903.09
2024-02-11T01:47:13.723Z,94905.00
2024-02-11T01:49:41.473Z,94914.28
2024-02-11T01:52:09.908Z,94914.28
2024-02-11T01:54:37.786Z,94917.75
2024-02-11T01:57:07.209Z,94921.22
2024-02-11T01:59:39.750Z,94916.97
2024-02-11T02:02:10.571Z,94922.38
2024-02-11T02:04:39.129Z,94914.28
2024-02-11T02:07:06.911Z,94920.47
2024-02-11T02:09:34.517Z,94921.59
2024-02-11T02:12:05.965Z,94925.06
2024-02-11T02:14:35.389Z,94927.00
2024-02-11T02:17:03.313Z,94919.22
2024-02-11T02:19:31.000Z,94929.69
2024-02-11T02:21:59.848Z,94921.94
2024-02-11T02:24:27.419Z,94918.88
2024-02-11T02:26:54.861Z,94915.41
2024-02-11T02:29:22.550Z,94906.72
2024-02-11T02:31:50.226Z,94927.34
2024-02-11T02:34:17.682Z,94911.13
2024-02-11T02:36:45.310Z,94913.47
2024-02-11T02:39:14.435Z,94903.03
2024-02-11T02:41:42.104Z,94913.81
2024-02-11T02:44:09.641Z,94916.53
2024-02-11T02:46:37.508Z,94909.56
2024-02-11T02:49:05.084Z,94914.97
2024-02-11T02:51:33.200Z,94902.59
2024-02-11T02:54:04.736Z,94912.28
2024-02-11T02:56:35.708Z,94908.81
2024-02-11T02:59:07.064Z,94909.56
2024-02-11T03:01:34.820Z,94911.88
2024-02-11T03:04:02.948Z,94916.13
2024-02-11T03:06:30.565Z,94918.03
2024-02-11T03:08:57.976Z,94911.06
2024-02-11T03:11:25.553Z,94916.13
2024-02-11T03:13:54.601Z,94918.03
2024-02-11T03:16:22.468Z,94922.66
2024-02-11T03:18:50.887Z,94921.09
2024-02-11T03:21:18.779Z,94927.28
2024-02-11T03:23:46.405Z,94931.13
2024-02-11T03:26:13.956Z,94936.94
2024-02-11T03:28:42.275Z,94939.25
2024-02-11T03:31:11.225Z,94955.09
2024-02-11T03:33:39.143Z,94958.16
2024-02-11T03:36:07.384Z,94963.56
2024-02-11T03:38:34.990Z,94970.53
2024-02-11T03:41:02.638Z,94980.53
2024-02-11T03:43:30.204Z,94988.66
2024-02-11T03:45:59.013Z,94985.19
2024-02-11T03:48:28.097Z,94997.91
2024-02-11T03:50:55.719Z,95007.56
2024-02-11T03:53:23.355Z,95006.47
2024-02-11T03:55:50.887Z,95011.41
2024-02-11T03:58:18.430Z,95011.41
2024-02-11T04:00:46.246Z,95016.81
2024-02-11T04:03:15.522Z,95017.63
2024-02-11T04:05:45.108Z,95016.81
2024-02-11T04:08:16.926Z,95018.38
2024-02-11T04:10:44.713Z,95022.22
2024-02-11T04:13:13.327Z,95033.03
2024-02-11T04:15:40.999Z,95038.44
2024-02-11T04:18:09.470Z,95041.16
2024-02-11T04:20:38.122Z,95046.56
2024-02-11T04:23:09.266Z,95046.47
2024-02-11T04:25:38.182Z,95051.94
2024-02-11T04:28:09.034Z,95057.72
2024-02-11T04:30:43.552Z,95062.75
2024-02-11T04:33:16.330Z,95067.41
2024-02-11T04:35:44.300Z,95073.56
2024-02-11T04:38:16.694Z,95083.63
2024-02-11T04:40:44.778Z,95085.53
2024-02-11T04:43:14.030Z,95089.38
2024-02-11T04:45:43.030Z,95102.53
2024-02-11T04:48:11.681Z,95097.13
2024-02-11T04:50:40.038Z,95101.75
2024-02-11T04:53:10.254Z,95107.16
2024-02-11T04:55:45.575Z,95110.66
2024-02-11T04:58:18.197Z,95106.69
2024-02-11T05:00:48.055Z,95107.16
2024-02-11T05:03:19.602Z,95113.25
2024-02-11T05:05:51.769Z,95121.81
2024-02-11T05:08:21.536Z,95124.41
2024-02-11T05:10:54.499Z,95129.91
2024-02-11T05:13:30.698Z,95137.22
2024-02-11T05:16:01.310Z,95139.13
2024-02-11T05:18:31.080Z,95142.63
2024-02-11T05:20:59.016Z,95154.25
2024-02-11T05:23:27.008Z,95156.94
2024-02-11T05:25:58.012Z,95156.94
2024-02-11T05:28:25.498Z,95166.16
2024-02-11T05:30:54.391Z,95172.72
2024-02-11T05:33:22.460Z,95170.44
2024-02-11T05:35:51.892Z,95174.25
2024-02-11T05:38:25.650Z,95173.06
2024-02-11T05:40:58.588Z,95185.06
2024-02-11T05:43:28.396Z,95188.56
2024-02-11T05:45:56.459Z,95191.28
2024-02-11T05:48:24.763Z,95195.88
2024-02-11T05:50:52.501Z,95197.03
2024-02-11T05:53:20.242Z,95201.28
2024-02-11T05:55:50.432Z,95205.13
2024-02-11T05:58:18.235Z,95222.16
2024-02-11T06:00:47.408Z,95214.81
2024-02-11T06:03:15.666Z,95224.84
2024-02-11T06:05:43.734Z,95225.63
2024-02-11T06:08:12.201Z,95218.66
2024-02-11T06:10:40.974Z,95224.06
2024-02-11T06:13:11.912Z,95220.56
2024-02-11T06:15:41.831Z,95225.97
2024-02-11T06:18:13.578Z,95235.66
2024-02-11T06:20:41.413Z,95237.56
2024-02-11T06:23:09.474Z,95237.56
2024-02-11T06:25:37.895Z,95235.22
2024-02-11T06:28:06.502Z,95242.16
2024-02-11T06:30:34.143Z,95252.22
2024-02-11T06:33:01.749Z,95247.56
2024-02-11T06:35:31.158Z,95261.88
2024-02-11T06:38:01.061Z,95259.19
2024-02-11T06:40:29.574Z,95263.78
2024-02-11T06:43:00.738Z,95267.63
2024-02-11T06:45:30.447Z,95269.19
2024-02-11T06:48:00.976Z,95267.63
2024-02-11T06:50:30.265Z,95273.84
2024-02-11T06:52:57.918Z,95274.97
2024-02-11T06:55:25.583Z,95283.09
2024-02-11T06:57:53.009Z,95276.88
2024-02-11T07:00:21.246Z,95285.00
2024-02-11T07:02:54.859Z,95291.19
2024-02-11T07:05:23.695Z,95293.09
2024-02-11T07:07:55.971Z,95293.09
2024-02-11T07:10:25.945Z,95298.50
2024-02-11T07:12:53.577Z,95303.91
2024-02-11T07:15:20.977Z,95307.41
2024-02-11T07:17:48.734Z,95315.50
2024-02-11T07:20:17.550Z,95315.50
2024-02-11T07:22:46.507Z,95320.91
2024-02-11T07:25:19.376Z,95320.91
2024-02-11T07:27:47.513Z,95325.53
2024-02-11T07:30:16.094Z,95324.72
2024-02-11T07:32:46.676Z,95325.53
2024-02-11T07:35:16.412Z,95331.72
2024-02-11T07:37:44.724Z,95332.84
2024-02-11T07:40:16.555Z,95334.44
2024-02-11T07:42:47.293Z,95336.34
2024-02-11T07:45:16.973Z,95340.94
2024-02-11T07:47:47.440Z,95344.78
2024-02-11T07:50:16.095Z,95346.34
2024-02-11T07:52:44.558Z,95344.00
2024-02-11T07:55:15.381Z,95351.75
2024-02-11T07:57:42.914Z,95350.19
2024-02-11T08:00:12.844Z,95345.59
2024-02-11T08:02:40.481Z,95348.63
2024-02-11T08:05:11.997Z,95349.06
2024-02-11T08:07:40.647Z,95351.75
2024-02-11T08:10:09.058Z,95348.28
2024-02-11T08:12:36.884Z,95351.75
2024-02-11T08:15:05.422Z,95359.88
2024-02-11T08:17:34.550Z,95357.16
2024-02-11T08:20:02.516Z,95351.75
2024-02-11T08:22:30.095Z,95358.31
2024-02-11T08:25:00.246Z,95362.13
2024-02-11T08:27:27.849Z,95362.91
2024-02-11T08:29:55.268Z,95363.69
2024-02-11T08:32:23.006Z,95371.00
2024-02-11T08:34:52.031Z,95372.59
2024-02-11T08:37:19.643Z,95378.78
2024-02-11T08:39:47.788Z,95370.25
2024-02-11T08:42:15.755Z,95382.63
2024-02-11T08:44:43.430Z,95381.06
2024-02-11T08:47:11.292Z,95382.16
2024-02-11T08:49:39.058Z,95384.88
2024-02-11T08:52:09.271Z,95392.97
2024-02-11T08:54:37.790Z,95382.16
2024-02-11T08:57:05.886Z,95385.66
2024-02-11T08:59:33.470Z,95384.88
2024-02-11T09:02:01.556Z,95396.47
2024-02-11T09:04:29.667Z,95394.56
2024-02-11T09:06:58.395Z,95396.81
2024-02-11T09:09:27.775Z,95395.69
2024-02-11T09:11:56.217Z,95399.97
2024-02-11T09:14:26.200Z,95401.09
2024-02-11T09:16:53.954Z,95404.16
2024-02-11T09:19:22.742Z,95412.69
2024-02-11T09:21:50.732Z,95414.59
2024-02-11T09:24:18.719Z,95410.31
2024-02-11T09:26:48.573Z,95417.28
2024-02-11T09:29:16.329Z,95411.88
2024-02-11T09:31:44.033Z,95411.88
2024-02-11T09:34:11.833Z,95414.59
2024-02-11T09:36:39.932Z,95410.00
2024-02-11T09:39:07.594Z,95414.59
2024-02-11T09:41:35.456Z,95416.19
2024-02-11T09:44:05.805Z,95424.28
2024-02-11T09:46:37.097Z,95429.91
2024-02-11T09:49:10.389Z,95424.16
2024-02-11T09:51:38.242Z,95426.94
2024-02-11T09:54:06.960Z,95430.06
2024-02-11T09:56:34.980Z,95429.41
2024-02-11T09:59:05.091Z,95433.25
2024-02-11T10:01:34.935Z,95444.94
2024-02-11T10:04:05.943Z,95440.75
2024-02-11T10:06:36.034Z,95445.81
2024-02-11T10:09:05.559Z,95448.19
2024-02-11T10:11:34.466Z,95455.16
2024-02-11T10:14:02.208Z,95461.34
2024-02-11T10:16:31.374Z,95461.28
2024-02-11T10:19:00.179Z,95461.16
2024-02-11T10:21:28.161Z,95469.19
2024-02-11T10:23:56.112Z,95467.91
2024-02-11T10:26:23.849Z,95473.69
2024-02-11T10:29:07.235Z,95471.69
2024-02-11T10:31:36.919Z,95481.69
2024-02-11T10:34:05.153Z,95479.66
2024-02-11T10:36:35.431Z,95482.38
2024-02-11T10:39:03.460Z,95483.06
2024-02-11T10:41:31.517Z,95476.06
2024-02-11T10:43:59.723Z,95483.06
2024-02-11T10:46:28.123Z,95476.06
2024-02-11T10:48:57.871Z,95476.41
2024-02-11T10:51:32.920Z,95467.53
2024-02-11T10:54:03.085Z,95476.75
2024-02-11T10:56:31.706Z,95478.69
2024-02-11T10:59:10.118Z,95474.84
2024-02-11T11:01:39.287Z,95472.94
2024-02-11T11:04:14.433Z,95470.91
2024-02-11T11:06:43.106Z,95467.41
2024-02-11T11:09:13.129Z,95477.66
2024-02-11T11:11:40.894Z,95474.25
2024-02-11T11:14:09.146Z,95475.16
2024-02-11T11:16:44.007Z,95473.31
2024-02-11T11:19:14.396Z,95471.88
2024-02-11T11:21:51.172Z,95471.97
2024-02-11T11:24:19.883Z,95481.31
2024-02-11T11:26:50.796Z,95474.41
2024-02-11T11:29:21.470Z,95478.25
2024-02-11T11:31:49.915Z,95472.09
2024-02-11T11:34:19.405Z,95472.16
2024-02-11T11:36:47.062Z,95476.44
2024-02-11T11:39:18.020Z,95473.31
2024-02-11T11:41:46.005Z,95472.63
2024-02-11T11:44:20.202Z,95473.31
2024-02-11T11:46:50.916Z,95472.25
2024-02-11T11:49:19.968Z,95477.78
2024-02-11T11:51:48.991Z,95470.09
2024-02-11T11:54:18.638Z,95477.09
2024-02-11T11:56:46.701Z,95474.41
2024-02-11T11:59:14.305Z,95475.97
2024-02-11T12:01:41.985Z,95477.53
2024-02-11T12:04:10.601Z,95470.97
2024-02-11T12:06:40.516Z,95471.78
2024-02-11T12:09:10.303Z,95472.56
2024-02-11T12:11:39.004Z,95471.78
2024-02-11T12:14:06.764Z,95474.06
2024-02-11T12:16:36.678Z,95466.16
2024-02-11T12:19:05.800Z,95482.03
2024-02-11T12:21:33.527Z,95476.63
2024-02-11T12:24:05.355Z,95470.00
2024-02-11T12:26:33.971Z,95483.19
2024-02-11T12:29:01.713Z,95475.06
2024-02-11T12:31:29.472Z,95473.50
2024-02-11T12:33:57.276Z,95479.69
2024-02-11T12:36:29.633Z,95480.81
2024-02-11T12:38:58.187Z,95478.47
2024-02-11T12:41:28.373Z,95472.72
2024-02-11T12:43:56.765Z,95474.63
2024-02-11T12:46:24.901Z,95480.03
2024-02-11T12:48:52.882Z,95484.31
2024-02-11T12:51:21.236Z,95485.44
2024-02-11T12:53:51.744Z,95481.63
2024-02-11T12:56:20.308Z,95480.81
2024-02-11T12:58:52.762Z,95476.22
2024-02-11T13:01:23.658Z,95478.91
2024-02-11T13:03:51.463Z,95481.63
2024-02-11T13:06:19.248Z,95475.75
2024-02-11T13:08:48.491Z,95476.22
2024-02-11T13:11:21.673Z,95478.91
2024-02-11T13:13:53.186Z,95475.06
2024-02-11T13:16:21.547Z,95475.41
2024-02-11T13:18:49.974Z,95473.84
2024-02-11T13:21:18.730Z,95462.25
2024-02-11T13:23:46.851Z,95468.78
2024-02-11T13:26:14.552Z,95468.78
2024-02-11T13:28:42.797Z,95469.94
2024-02-11T13:31:20.125Z,95473.72
2024-02-11T13:33:54.296Z,95470.94
2024-02-11T13:36:22.008Z,95467.09
2024-02-11T13:38:49.675Z,95478.72
2024-02-11T13:41:17.371Z,95467.44
2024-02-11T13:43:45.223Z,95484.00
2024-02-11T13:46:15.331Z,95487.84
2024-02-11T13:48:44.066Z,95486.16
2024-02-11T13:51:12.283Z,95490.09
2024-02-11T13:53:40.076Z,95496.63
2024-02-11T13:56:08.369Z,95494.72
2024-02-11T13:58:42.604Z,95493.16
2024-02-11T14:01:11.879Z,95489.22
2024-02-11T14:03:45.153Z,95494.28
2024-02-11T14:06:16.789Z,95498.91
2024-02-11T14:08:46.997Z,95494.94
2024-02-11T14:11:15.293Z,95500.81
2024-02-11T14:13:43.419Z,95497.31
2024-02-11T14:16:11.676Z,95505.09
2024-02-11T14:18:39.943Z,95504.66
2024-02-11T14:21:09.738Z,95511.16
2024-02-11T14:23:39.901Z,95505.75
2024-02-11T14:26:11.249Z,95508.94
2024-02-11T14:28:39.291Z,95519.06
2024-02-11T14:31:07.026Z,95521.44
2024-02-11T14:33:34.858Z,95519.16
2024-02-11T14:36:02.697Z,95513.88
2024-02-11T14:38:32.164Z,95517.00
2024-02-11T14:41:00.967Z,95515.53
2024-02-11T14:43:28.754Z,95520.16
2024-02-11T14:45:56.584Z,95526.78
2024-02-11T14:48:24.404Z,95527.25
2024-02-11T14:50:52.061Z,95528.81
2024-02-11T14:53:20.217Z,95532.75
2024-02-11T14:55:49.371Z,95533.88
2024-02-11T14:58:19.009Z,95533.16
2024-02-11T15:00:48.320Z,95539.72
2024-02-11T15:03:15.949Z,95528.91
2024-02-11T15:05:43.690Z,95539.38
2024-02-11T15:08:11.603Z,95539.72
2024-02-11T15:10:39.257Z,95539.63
2024-02-11T15:13:08.306Z,95545.72
2024-02-11T15:15:38.094Z,95550.66
2024-02-11T15:18:06.149Z,95557.56
2024-02-11T15:20:34.569Z,95561.38
2024-02-11T15:23:02.369Z,95565.22
2024-02-11T15:25:30.933Z,95566.16
2024-02-11T15:27:59.619Z,95577.66
2024-02-11T15:30:28.715Z,95568.41
2024-02-11T15:32:57.182Z,95574.25
2024-02-11T15:35:29.389Z,95558.38
2024-02-11T15:37:59.546Z,95576.38
2024-02-11T15:40:27.796Z,95580.31
2024-02-11T15:42:55.372Z,95576.47
2024-02-11T15:45:23.007Z,95579.31
2024-02-11T15:47:52.073Z,95582.78
2024-02-11T15:50:21.949Z,95585.13
2024-02-11T15:52:51.509Z,95594.94
2024-02-11T15:55:22.265Z,95591.44
2024-02-11T15:57:49.931Z,95593.81
2024-02-11T16:00:21.035Z,95589.19
2024-02-11T16:02:48.921Z,95593.81
2024-02-11T16:05:18.017Z,95593.47
2024-02-11T16:07:46.798Z,95596.97
2024-02-11T16:10:15.743Z,95602.03
2024-02-11T16:12:44.302Z,95600.44
2024-02-11T16:15:15.231Z,95608.91
2024-02-11T16:17:44.003Z,95607.78
2024-02-11T16:20:18.806Z,95613.06
2024-02-11T16:22:48.475Z,95611.97
2024-02-11T16:25:16.794Z,95621.97
2024-02-11T16:27:44.567Z,95627.06
2024-02-11T16:30:13.439Z,95630.09
2024-02-11T16:32:41.281Z,95635.50
2024-02-11T16:35:14.644Z,95632.81
2024-02-11T16:37:42.245Z,95633.22
2024-02-11T16:40:13.196Z,95647.22
2024-02-11T16:42:43.904Z,95644.97
2024-02-11T16:45:14.497Z,95651.63
2024-02-11T16:47:42.148Z,95659.16
2024-02-11T16:50:13.338Z,95656.91
2024-02-11T16:52:41.246Z,95655.75
2024-02-11T16:55:09.742Z,95657.34
2024-02-11T16:57:38.893Z,95664.31
2024-02-11T17:00:08.267Z,95667.00
2024-02-11T17:02:36.320Z,95673.69
2024-02-11T17:05:05.448Z,95677.16
2024-02-11T17:07:33.964Z,95679.44
2024-02-11T17:10:01.642Z,95681.81
2024-02-11T17:12:30.795Z,95687.56
2024-02-11T17:14:59.969Z,95691.81
2024-02-11T17:17:27.744Z,95695.66
2024-02-11T17:19:56.134Z,95693.41
2024-02-11T17:22:23.982Z,95694.53
2024-02-11T17:24:51.479Z,95711.19
2024-02-11T17:27:19.081Z,95715.97
2024-02-11T17:29:46.457Z,95713.59
2024-02-11T17:32:25.451Z,95711.19
2024-02-11T17:34:57.456Z,95716.28
2024-02-11T17:37:26.359Z,95720.91
2024-02-11T17:39:53.970Z,95726.31
2024-02-11T17:42:21.410Z,95730.63
2024-02-11T17:44:49.947Z,95731.44
2024-02-11T17:47:19.150Z,95737.59
2024-02-11T17:49:47.836Z,95741.91
2024-02-11T17:52:17.233Z,95749.22
2024-02-11T17:54:44.937Z,95748.44
2024-02-11T17:57:12.368Z,95760.84
2024-02-11T17:59:41.551Z,95751.13
2024-02-11T18:02:11.128Z,95754.63
2024-02-11T18:04:44.270Z,95765.47
2024-02-11T18:07:14.461Z,95767.38
2024-02-11T18:09:42.323Z,95769.72
2024-02-11T18:12:10.036Z,95772.09
2024-02-11T18:14:38.718Z,95763.56
2024-02-11T18:17:06.630Z,95764.00
2024-02-11T18:19:35.837Z,95768.50
2024-02-11T18:22:05.400Z,95764.53
2024-02-11T18:24:33.068Z,95769.13
2024-02-11T18:27:01.087Z,95766.00
2024-02-11T18:29:30.216Z,95772.53
2024-02-11T18:31:58.124Z,95766.66
2024-02-11T18:34:25.808Z,95768.25
2024-02-11T18:36:54.165Z,95769.38
2024-02-11T18:39:23.934Z,95780.53
2024-02-11T18:41:51.521Z,95782.44
2024-02-11T18:44:18.994Z,95785.94
2024-02-11T18:46:46.732Z,95778.16
2024-02-11T18:49:16.780Z,95776.59
2024-02-11T18:51:45.586Z,95780.06
2024-02-11T18:54:13.305Z,95781.19
2024-02-11T18:56:42.186Z,95779.63
2024-02-11T18:59:10.399Z,95776.13
2024-02-11T19:01:38.281Z,95782.69
2024-02-11T19:04:06.213Z,95788.09
2024-02-11T19:06:34.618Z,95792.69
2024-02-11T19:09:02.308Z,95792.34
2024-02-11T19:11:30.083Z,95796.63
2024-02-11T19:14:01.007Z,95795.97
2024-02-11T19:16:29.373Z,95806.78
2024-02-11T19:18:57.236Z,95813.78
2024-02-11T19:21:25.565Z,95809.97
2024-02-11T19:23:53.191Z,95812.66
2024-02-11T19:26:21.140Z,95811.09
2024-02-11T19:28:48.934Z,95809.50
2024-02-11T19:31:18.898Z,95808.38
2024-02-11T19:34:06.457Z,95806.13
2024-02-11T19:36:35.059Z,95813.09
2024-02-11T19:39:03.200Z,95808.03
2024-02-11T19:41:30.957Z,95814.22
2024-02-11T19:43:58.707Z,95818.84
2024-02-11T19:46:27.870Z,95814.91
2024-02-11T19:48:56.795Z,95815.22
2024-02-11T19:51:29.292Z,95824.81
2024-02-11T19:53:57.139Z,95825.94
2024-02-11T19:56:24.708Z,95837.09
2024-02-11T19:58:52.649Z,95833.94
2024-02-11T20:01:20.538Z,95835.41
2024-02-11T20:03:50.477Z,95843.50
2024-02-11T20:06:18.340Z,95836.06
2024-02-11T20:08:47.944Z,95841.84
2024-02-11T20:11:16.052Z,95847.56
2024-02-11T20:13:43.691Z,95847.09
2024-02-11T20:16:13.405Z,95853.31
2024-02-11T20:18:41.943Z,95853.97
2024-02-11T20:21:11.191Z,95855.88
2024-02-11T20:23:42.032Z,95858.59
2024-02-11T20:26:09.988Z,95862.41
2024-02-11T20:28:37.702Z,95867.38
2024-02-11T20:31:06.896Z,95880.91
2024-02-11T20:33:35.007Z,95873.91
2024-02-11T20:36:02.803Z,95878.53
2024-02-11T20:38:31.808Z,95876.94
2024-02-11T20:41:00.826Z,95874.56
2024-02-11T20:43:29.981Z,95879.97
2024-02-11T20:45:58.221Z,95889.22
2024-02-11T20:48:26.882Z,95902.28
2024-02-11T20:50:57.314Z,95903.88
2024-02-11T20:53:24.996Z,95904.19
2024-02-11T20:55:54.345Z,95900.69
2024-02-11T20:58:22.111Z,95896.41
2024-02-11T21:00:50.347Z,95904.53
2024-02-11T21:03:18.179Z,95903.72
2024-02-11T21:05:45.926Z,95906.78
2024-02-11T21:08:14.857Z,95915.66
2024-02-11T21:10:42.661Z,95910.59
2024-02-11T21:13:31.710Z,95910.59
2024-02-11T21:15:59.367Z,95910.59
2024-02-11T21:18:27.718Z,95914.44
2024-02-11T21:20:55.385Z,95914.44
2024-02-11T21:23:25.192Z,95918.25
2024-02-11T21:25:54.621Z,95915.56
2024-02-11T21:28:23.179Z,95916.66
2024-02-11T21:30:54.363Z,95916.66
2024-02-11T21:33:24.447Z,95920.50
2024-02-11T21:35:52.209Z,95925.91
2024-02-11T21:38:19.794Z,95923.19
2024-02-11T21:40:47.466Z,95921.63
2024-02-11T21:43:15.193Z,95924.31
2024-02-11T21:45:42.933Z,95928.16
2024-02-11T21:48:11.993Z,95933.56
2024-02-11T21:50:40.396Z,95929.25
2024-02-11T21:53:08.813Z,95930.38
2024-02-11T21:55:36.468Z,95927.69
2024-02-11T21:58:04.063Z,95931.19
2024-02-11T22:00:32.673Z,95931.50
2024-02-11T22:03:07.701Z,95932.31
2024-02-11T22:05:37.826Z,95934.22
2024-02-11T22:08:08.008Z,95938.81
2024-02-11T22:10:35.779Z,95926.44
2024-02-11T22:13:06.313Z,95930.28
2024-02-11T22:15:33.930Z,95936.44
2024-02-11T22:18:02.205Z,95933.75
2024-02-11T22:20:29.860Z,95930.28
2024-02-11T22:22:59.562Z,95931.84
2024-02-11T22:25:27.257Z,95929.47
2024-02-11T22:28:12.250Z,95931.38
2024-02-11T22:30:40.007Z,95934.88
2024-02-11T22:33:07.450Z,95934.06
2024-02-11T22:35:35.164Z,95925.19
2024-02-11T22:38:04.619Z,95934.44
2024-02-11T22:40:32.969Z,95938.72
2024-02-11T22:43:00.561Z,95941.41
2024-02-11T22:45:27.940Z,95936.34
2024-02-11T22:47:55.669Z,95950.66
2024-02-11T22:50:23.589Z,95946.34
2024-02-11T22:52:54.715Z,95953.69
2024-02-11T22:55:27.062Z,95950.66
2024-02-11T22:57:55.240Z,95949.84
2024-02-11T23:00:35.159Z,95952.88
2024-02-11T23:03:06.559Z,95954.44
2024-02-11T23:05:38.359Z,95959.84
2024-02-11T23:08:08.702Z,95959.84
2024-02-11T23:10:38.151Z,95967.19
2024-02-11T23:13:05.802Z,95970.22
2024-02-11T23:15:34.703Z,95964.81
2024-02-11T23:18:21.529Z,95964.81
2024-02-11T23:20:51.568Z,95971.78
2024-02-11T23:23:19.400Z,95972.13
2024-02-11T23:25:48.463Z,95964.81
2024-02-11T23:28:20.214Z,95970.22
2024-02-11T23:30:49.151Z,95972.94
2024-02-11T23:33:17.604Z,95970.56
2024-02-11T23:35:46.412Z,95986.44
2024-02-11T23:38:14.287Z,95970.88
2024-02-11T23:40:46.756Z,95979.44
2024-02-11T23:43:15.896Z,95981.03
2024-02-11T23:45:44.275Z,95982.94
2024-02-11T23:48:12.452Z,95989.13
2024-02-11T23:50:40.341Z,95989.47
2024-02-11T23:53:08.322Z,95984.84
2024-02-11T23:55:36.630Z,95984.84
2024-02-11T23:58:05.498Z,95985.63
